Flugplatz Schleswig-Kropp (EDXC)

Hier findest Du alle Informationen zum Flugplatz Schleswig-Kropp (EDXC).

Informationen für Piloten zum Flugplatz Schleswig-Kropp

Hier findest Du alle relevanten Informationen, die Du als Pilot benötigst, um Schleswig-Kropp anzufliegen.

Flugplatz: Schleswig-Kropp ICAO-Code: EDXC
Frequenz Turm: 118,675 Mhz GAFOR Gebiet: 4
Frequenz Ground: 118,675 Mhz Mogas: ja
Platzrunde: S/N 600 ft Landegebühr: -
Platzhöhe: - Sunrise: 02:46 Uhr UTC
Pisten: 09/27 - 880 m x 30 m, GRAS Sunset: 20:03 Uhr UTC

Mitglieder, die in Schleswig-Kropp fliegen

Flugwetter am Flugplatz Schleswig-Kropp

Die METAR Information stammen aus EDHK (39.48 km entfernt).

METAR Code:
2017/06/23 08:20
EDHK 230820Z 26013KT 7000 -RA OVC004 16/16 Q1008

Flugschulen am Flugplatz Schleswig-Kropp

Am Flugplatz Schleswig-Kropp gibt es eine Flugschule.

Benachbarte Flugplätze und Flugschulen

Es gibt 11 weitere Flugplätze in einem Umkreis von 50 km um den Flugplatz Schleswig-Kropp.

Jetzt anmelden

Passwort vergessen

Umfrage Archiv

Würdet Ihr Autopiloten in ULs befürworten?

Ja
50.3 %
Nein
31.5 %
Mir ist es egal
18.2 %
Stimmen: 346 | Diskussion (38)
Anzeige: Roland Aircraft
Statistik Alle Mitglieder

Aktuell sind 38 Besucher online, davon 3 Mitglieder und 35 Gäste.


Mitglieder online:
diddep  pedrob  juliusair 

Anzeige: VFR Sprechfunk Simulator


Anzeige: Pocket FMS